Time;durP1;ratioP1;P1;durP2;ratioP2;P2;SDS_P1;SDS_P2;PMS_P1;PMS_P2;Temp;Humidity;BMP_temperature;BMP_pressure;BME280_temperature;BME280_humidity;BME280_pressure;Samples;Min_cycle;Max_cycle;Signal;HPM_P1;HPM_P2
2021/07/05 00:01:36;;;;;;;12.23;10.23;;;;;;;19.50;76.39;99489.91;126551;1090;114511;-78
2021/07/05 00:04:24;;;;;;;12.23;10.93;;;;;;;19.54;75.79;99486.06;126611;1090;102930;-78
2021/07/05 00:07:12;;;;;;;;;;;;;;;19.56;76.01;99478.84;126575;1089;114651;-78
2021/07/05 00:10:00;;;;;;;12.53;9.43;;;;;;;19.54;76.05;99479.94;126817;1088;103447;-78
2021/07/05 00:12:49;;;;;;;11.20;10.00;;;;;;;19.53;75.80;99483.52;126570;1090;114654;-78
2021/07/05 00:15:37;;;;;;;14.10;11.30;;;;;;;19.59;76.83;99483.08;126677;1089;103025;-78
2021/07/05 00:18:25;;;;;;;13.17;10.10;;;;;;;19.59;75.86;99477.78;126549;1090;115118;-78
2021/07/05 00:21:13;;;;;;;13.40;11.17;;;;;;;19.58;76.10;99468.17;126608;1089;102890;-78
2021/07/05 00:24:01;;;;;;;12.13;10.67;;;;;;;19.59;75.62;99468.05;126647;1090;102908;-78
2021/07/05 00:26:49;;;;;;;12.37;11.17;;;;;;;19.58;75.84;99466.36;126633;1090;114624;-78
2021/07/05 00:29:37;;;;;;;11.60;10.40;;;;;;;19.60;75.76;99466.23;126719;1089;102941;-78
2021/07/05 00:32:24;;;;;;;13.40;10.87;;;;;;;19.57;75.52;99472.63;126639;1090;114796;-78
2021/07/05 00:35:14;;;;;;;11.27;9.60;;;;;;;19.55;75.55;99474.52;126666;1090;102842;-78
2021/07/05 00:38:02;;;;;;;11.77;10.20;;;;;;;19.50;76.12;99462.62;126691;1090;114447;-78
2021/07/05 00:40:51;;;;;;;11.90;10.07;;;;;;;19.46;75.45;99475.25;126793;1090;102869;-78
2021/07/05 00:43:38;;;;;;;10.20;9.10;;;;;;;19.45;75.90;99467.45;126594;1090;114796;-78
2021/07/05 00:46:26;;;;;;;10.47;9.23;;;;;;;19.48;75.55;99464.55;126667;1090;102967;-78
2021/07/05 00:49:15;;;;;;;10.73;9.10;;;;;;;19.47;75.68;99460.23;126694;1089;113638;-79
2021/07/05 00:52:05;;;;;;;11.30;9.17;;;;;;;19.41;75.77;99458.09;126691;1089;102978;-78
2021/07/05 00:54:53;;;;;;;9.90;8.43;;;;;;;19.36;75.97;99454.95;126518;1090;113341;-78
2021/07/05 00:57:41;;;;;;;9.60;8.70;;;;;;;19.29;75.84;99452.81;126565;1090;103454;-79
2021/07/05 01:00:30;;;;;;;10.23;9.23;;;;;;;19.20;75.92;99458.83;126469;1090;114449;-78
2021/07/05 01:03:17;;;;;;;10.17;9.10;;;;;;;19.12;75.59;99453.33;126746;1090;102880;-78
2021/07/05 01:06:05;;;;;;;10.23;8.63;;;;;;;19.12;76.17;99455.13;126612;1090;102855;-78
2021/07/05 01:08:54;;;;;;;9.43;8.33;;;;;;;19.12;76.56;99455.13;126673;1090;114262;-78
2021/07/05 01:11:42;;;;;;;11.30;9.00;;;;;;;19.10;76.50;99452.62;126546;1090;103068;-78
2021/07/05 01:14:29;;;;;;;10.33;9.13;;;;;;;19.06;76.40;99461.76;126595;1090;114378;-78
2021/07/05 01:17:17;;;;;;;11.53;8.77;;;;;;;19.07;76.17;99466.08;126565;1089;102893;-78
2021/07/05 01:20:06;;;;;;;9.77;8.77;;;;;;;19.10;76.69;99465.83;126444;1090;114346;-78
2021/07/05 01:22:55;;;;;;;10.25;8.70;;;;;;;19.09;76.52;99469.44;126712;1090;102975;-78
2021/07/05 01:25:43;;;;;;;10.13;8.70;;;;;;;19.07;76.18;99475.81;126619;1090;114616;-78
2021/07/05 01:28:32;;;;;;;10.13;8.97;;;;;;;19.05;76.43;99475.09;126663;1090;102942;-78
2021/07/05 01:31:20;;;;;;;8.93;8.03;;;;;;;18.99;76.43;99471.95;126520;1090;114471;-78
2021/07/05 01:34:08;;;;;;;9.27;8.37;;;;;;;19.02;76.58;99473.51;126592;1090;102893;-78
2021/07/05 01:36:56;;;;;;;9.77;8.77;;;;;;;19.04;76.41;99476.90;126467;1089;114305;-78
2021/07/05 01:39:44;;;;;;;9.13;8.13;;;;;;;19.09;76.55;99484.45;126531;1090;103087;-78
2021/07/05 01:42:31;;;;;;;8.80;7.90;;;;;;;19.14;76.70;99475.19;126542;1090;114587;-78
2021/07/05 01:45:37;;;;;;;8.57;7.77;;;;;;;19.23;76.95;99477.11;126537;1089;102971;-78
2021/07/05 01:48:26;;;;;;;9.07;8.13;;;;;;;19.28;76.66;99469.64;126558;1089;102869;-78
2021/07/05 01:51:14;;;;;;;9.23;7.70;;;;;;;19.33;76.54;99470.11;126752;1090;102962;-78
2021/07/05 01:54:04;;;;;;;13.63;7.70;;;;;;;19.40;76.72;99466.98;126628;1088;103326;-78
2021/07/05 01:56:51;;;;;;;9.00;8.10;;;;;;;19.45;76.66;99465.64;126517;1090;114386;-78
2021/07/05 01:59:58;;;;;;;10.07;8.30;;;;;;;19.55;75.98;99471.88;126598;1090;102894;-78
2021/07/05 02:02:46;;;;;;;9.87;8.33;;;;;;;19.60;76.06;99468.88;126492;1090;114552;-78
2021/07/05 02:05:35;;;;;;;8.73;7.83;;;;;;;19.57;75.74;99474.42;126626;1089;103023;-78
2021/07/05 02:08:24;;;;;;;8.73;7.83;;;;;;;19.54;75.61;99475.48;126508;1090;114129;-78
2021/07/05 02:11:12;;;;;;;9.47;8.47;;;;;;;19.52;76.02;99481.84;126707;1090;103345;-78
2021/07/05 02:13:59;;;;;;;10.13;8.53;;;;;;;19.48;75.69;99480.41;126461;1090;114359;-78
2021/07/05 02:16:47;;;;;;;9.93;7.70;;;;;;;19.43;76.10;99472.02;126605;1090;103444;-78
2021/07/05 02:19:35;;;;;;;9.53;8.53;;;;;;;19.42;76.11;99465.05;126572;1090;114499;-78
2021/07/05 02:22:23;;;;;;;9.80;8.80;;;;;;;19.39;75.74;99473.21;126624;1090;102853;-78
2021/07/05 02:25:13;;;;;;;10.50;8.90;;;;;;;19.31;75.79;99472.04;126697;1089;114437;-78
2021/07/05 02:28:06;;;;;;;11.23;8.47;;;;;;;19.24;75.63;99465.58;126638;1090;102879;-78
2021/07/05 02:30:55;;;;;;;9.47;8.47;;;;;;;19.26;76.33;99470.73;126599;1090;100488;-78
2021/07/05 02:33:42;;;;;;;10.13;8.60;;;;;;;19.26;76.26;99466.29;126610;1090;102881;-78
2021/07/05 02:36:31;;;;;;;10.40;9.00;;;;;;;19.24;76.24;99470.02;126743;1088;102856;-78
2021/07/05 02:39:19;;;;;;;9.73;8.73;;;;;;;19.25;76.61;99469.06;126661;1090;114624;-78
2021/07/05 02:42:07;;;;;;;;;;;;;;;19.26;76.69;99474.22;126658;1090;103043;-77
2021/07/05 02:44:55;;;;;;;11.48;8.63;;;;;;;19.29;76.52;99471.33;126548;1090;102947;-77
2021/07/05 02:47:43;;;;;;;11.30;9.30;;;;;;;19.31;76.38;99473.84;126630;1090;102863;-77
2021/07/05 02:50:31;;;;;;;9.57;8.57;;;;;;;19.36;76.41;99476.11;126433;1090;114790;-78
2021/07/05 02:53:19;;;;;;;11.10;9.05;;;;;;;19.37;76.50;99477.78;126635;1090;102852;-78
2021/07/05 02:56:06;;;;;;;10.97;8.87;;;;;;;19.37;76.81;99475.98;126533;1090;114740;-78
2021/07/05 02:58:54;;;;;;;10.50;9.20;;;;;;;19.38;76.67;99480.30;126630;1090;102922;-78
2021/07/05 03:01:45;;;;;;;10.60;9.50;;;;;;;19.37;76.58;99478.63;126514;1089;114632;-78
2021/07/05 03:04:32;;;;;;;14.17;8.97;;;;;;;19.40;75.92;99481.05;126677;1088;102866;-79
2021/07/05 03:07:22;;;;;;;10.73;9.03;;;;;;;19.45;76.37;99488.61;126609;1088;103103;-78
2021/07/05 03:10:12;;;;;;;10.37;9.03;;;;;;;19.47;76.70;99484.03;126800;1089;102994;-78
2021/07/05 03:13:04;;;;;;;12.33;9.80;;;;;;;19.53;76.27;99484.36;126807;1090;102934;-78
2021/07/05 03:15:52;;;;;;;11.87;9.03;;;;;;;19.54;76.63;99490.52;126569;1089;114363;-78
2021/07/05 03:18:40;;;;;;;10.37;9.27;;;;;;;19.55;76.39;99495.68;126787;1090;103096;-78
2021/07/05 03:21:28;;;;;;;10.37;9.27;;;;;;;19.56;76.24;99491.23;126669;1090;114574;-78
2021/07/05 03:24:16;;;;;;;10.47;9.37;;;;;;;19.57;75.94;99490.30;126598;1090;102878;-78
2021/07/05 03:27:05;;;;;;;10.23;9.13;;;;;;;19.63;76.05;99486.30;126524;1089;114414;-78
2021/07/05 03:29:56;;;;;;;10.90;9.70;;;;;;;19.66;76.59;99489.53;126788;1089;102989;-78
2021/07/05 03:32:44;;;;;;;10.30;9.17;;;;;;;19.68;76.16;99492.89;126428;1089;114472;-79
2021/07/05 03:35:34;;;;;;;11.87;9.10;;;;;;;19.73;76.14;99495.98;126568;1090;102846;-78
2021/07/05 03:38:21;;;;;;;10.43;9.33;;;;;;;19.75;76.15;99491.44;126507;1090;114729;-78
2021/07/05 03:41:13;;;;;;;10.37;9.37;;;;;;;19.73;76.19;99492.50;126614;1089;102852;-78
2021/07/05 03:44:01;;;;;;;12.23;9.27;;;;;;;19.73;75.74;99493.34;126529;1090;114593;-78
2021/07/05 03:46:49;;;;;;;11.67;10.40;;;;;;;19.83;76.35;99490.80;126732;1089;103028;-78
2021/07/05 03:49:37;;;;;;;11.47;10.20;;;;;;;19.86;75.59;99494.02;126804;1090;102857;-78
2021/07/05 03:52:25;;;;;;;14.30;9.95;;;;;;;19.88;75.82;99500.02;126684;1090;114293;-78
2021/07/05 03:55:16;;;;;;;10.77;9.67;;;;;;;19.88;75.76;99500.02;126753;1090;102889;-78
2021/07/05 03:58:05;;;;;;;12.60;10.67;;;;;;;19.88;75.56;99500.02;126511;1090;114498;-78
2021/07/05 04:00:54;;;;;;;10.80;9.70;;;;;;;19.92;75.38;99505.90;126566;1090;102884;-78
2021/07/05 04:03:42;;;;;;;10.40;9.30;;;;;;;19.95;75.69;99504.84;126497;1090;114495;-78
2021/07/05 04:06:30;;;;;;;11.07;9.50;;;;;;;20.00;75.22;99502.64;126658;1090;102958;-78
2021/07/05 04:09:18;;;;;;;11.93;10.03;;;;;;;20.00;75.24;99502.64;126481;1089;114415;-78
2021/07/05 04:12:11;;;;;;;12.67;10.43;;;;;;;20.00;75.41;99505.28;126645;1090;102878;-78
2021/07/05 04:14:59;;;;;;;10.30;9.20;;;;;;;20.04;75.49;99512.00;126515;1090;114501;-78
2021/07/05 04:17:47;;;;;;;10.93;9.37;;;;;;;20.08;75.68;99505.47;126617;1090;102971;-78
2021/07/05 04:20:36;;;;;;;9.80;8.87;;;;;;;20.21;75.32;99506.14;126576;1090;114643;-78
2021/07/05 04:23:24;;;;;;;10.70;9.57;;;;;;;20.28;74.96;99502.00;126781;1090;102889;-78
2021/07/05 04:26:12;;;;;;;11.63;9.77;;;;;;;20.30;74.81;99497.44;126574;1090;114732;-78
2021/07/05 04:29:00;;;;;;;11.37;10.13;;;;;;;20.34;74.69;99498.02;126584;1090;103055;-78
2021/07/05 04:31:49;;;;;;;11.07;9.57;;;;;;;20.36;74.65;99504.02;126779;1090;101584;-78
2021/07/05 04:34:37;;;;;;;10.63;9.60;;;;;;;20.41;74.76;99502.69;126639;1090;114338;-78
2021/07/05 04:37:25;;;;;;;11.03;9.83;;;;;;;20.42;74.60;99507.01;126763;1090;102945;-78
2021/07/05 04:40:16;;;;;;;12.47;10.77;;;;;;;20.36;74.18;99499.56;126677;1090;114500;-78
2021/07/05 04:43:05;;;;;;;11.90;9.50;;;;;;;20.29;73.86;99509.00;126571;1090;102808;-78
2021/07/05 04:45:54;;;;;;;9.87;8.87;;;;;;;20.23;74.08;99520.09;126572;1089;114305;-78
2021/07/05 04:48:43;;;;;;;11.43;10.30;;;;;;;20.19;74.54;99526.61;126662;1088;102854;-78
2021/07/05 04:51:31;;;;;;;14.17;11.77;;;;;;;20.19;74.32;99514.21;126655;1090;114723;-78
2021/07/05 04:54:19;;;;;;;14.30;11.73;;;;;;;20.16;74.45;99518.93;126621;1090;103329;-78
2021/07/05 04:57:06;;;;;;;12.60;10.67;;;;;;;20.11;74.40;99515.83;126606;1090;114515;-78
2021/07/05 04:59:54;;;;;;;13.33;10.47;;;;;;;20.06;74.47;99512.70;126570;1090;103358;-78
2021/07/05 05:02:42;;;;;;;14.03;11.73;;;;;;;20.03;74.48;99505.86;126672;1088;114646;-78
2021/07/05 05:05:32;;;;;;;13.70;12.10;;;;;;;20.05;74.59;99495.15;126648;1090;102875;-78
2021/07/05 05:08:19;;;;;;;14.40;12.63;;;;;;;20.07;74.92;99501.15;126478;1090;114638;-78
2021/07/05 05:11:08;;;;;;;15.80;13.40;;;;;;;20.08;74.63;99500.18;126637;1089;102850;-78
2021/07/05 05:13:56;;;;;;;14.80;12.60;;;;;;;20.04;74.26;99499.60;126673;1090;102644;-78
2021/07/05 05:16:45;;;;;;;15.40;12.83;;;;;;;20.09;74.25;99496.56;126640;1090;114607;-78
2021/07/05 05:19:34;;;;;;;15.37;13.67;;;;;;;20.09;74.33;99496.56;126645;1089;102858;-78
2021/07/05 05:22:22;;;;;;;15.70;13.57;;;;;;;20.12;74.81;99496.33;126677;1090;115107;-78
2021/07/05 05:25:11;;;;;;;16.33;13.53;;;;;;;20.13;74.43;99495.36;126594;1090;104527;-78
2021/07/05 05:27:59;;;;;;;13.33;11.97;;;;;;;20.08;74.11;99500.18;126484;1090;114663;-78
2021/07/05 05:30:46;;;;;;;16.87;12.37;;;;;;;20.06;74.19;99496.83;126627;1090;102871;-78
2021/07/05 05:33:34;;;;;;;14.53;12.80;;;;;;;20.08;74.74;99493.08;126513;1090;114787;-78
2021/07/05 05:36:22;;;;;;;14.60;11.77;;;;;;;20.12;74.37;99488.39;126765;1088;102871;-78
2021/07/05 05:39:09;;;;;;;12.77;11.27;;;;;;;20.21;74.31;99495.55;126491;1090;114902;-78
2021/07/05 05:41:57;;;;;;;12.97;10.87;;;;;;;20.33;75.17;99488.39;126750;1090;102673;-78
2021/07/05 05:44:45;;;;;;;15.13;13.20;;;;;;;20.36;74.34;99488.97;126624;1090;114132;-79
2021/07/05 05:47:33;;;;;;;16.30;12.57;;;;;;;20.41;74.69;99497.38;126808;1089;101095;-78
2021/07/05 05:50:22;;;;;;;13.60;11.30;;;;;;;20.46;74.26;99494.34;126539;1090;102993;-78
2021/07/05 05:53:11;;;;;;;10.57;9.57;;;;;;;20.50;74.47;99496.62;126749;1088;102878;-78
2021/07/05 05:55:59;;;;;;;11.33;9.70;;;;;;;20.62;73.99;99502.66;126790;1089;102962;-78
2021/07/05 05:58:47;;;;;;;10.87;9.77;;;;;;;20.71;73.97;99501.05;126679;1088;114502;-78
2021/07/05 06:01:41;;;;;;;12.40;10.07;;;;;;;20.86;74.19;99497.08;126828;1090;102898;-79
2021/07/05 06:04:29;;;;;;;18.50;15.40;;;;;;;20.98;73.90;99498.64;126570;1090;114587;-78
2021/07/05 06:07:17;;;;;;;11.33;9.97;;;;;;;21.06;73.20;99496.19;126623;1088;102624;-78
2021/07/05 06:10:07;;;;;;;11.53;8.93;;;;;;;21.13;73.34;99505.27;126492;1090;113628;-78
2021/07/05 06:12:56;;;;;;;10.33;9.23;;;;;;;21.27;73.27;99511.21;126670;1089;103438;-78
2021/07/05 06:15:45;;;;;;;10.47;9.33;;;;;;;21.37;72.93;99506.78;126694;1089;114655;-79
2021/07/05 06:18:33;;;;;;;9.30;8.40;;;;;;;21.74;72.62;99503.50;126655;1090;102991;-79
2021/07/05 06:21:21;;;;;;;10.60;8.57;;;;;;;22.21;71.83;99489.39;126489;1090;114478;-78
2021/07/05 06:24:09;;;;;;;9.07;8.13;;;;;;;22.91;70.96;99492.59;126804;1090;103018;-79
2021/07/05 06:26:56;;;;;;;8.63;7.83;;;;;;;23.56;69.89;99500.53;126583;1090;114533;-79
2021/07/05 06:29:45;;;;;;;8.17;7.37;;;;;;;23.92;67.72;99496.09;126755;1089;102954;-78
2021/07/05 06:32:32;;;;;;;;;;;;;;;24.11;67.60;99496.76;126651;1089;102779;-78
2021/07/05 06:35:23;;;;;;;10.07;7.60;;;;;;;24.49;66.98;99499.23;126639;1090;102892;-78
2021/07/05 06:38:12;;;;;;;10.17;7.50;;;;;;;25.13;65.81;99504.11;126664;1090;102917;-78
2021/07/05 06:41:00;;;;;;;9.77;7.53;;;;;;;25.83;65.22;99507.34;126554;1088;114375;-82
2021/07/05 06:43:48;;;;;;;8.43;7.33;;;;;;;26.46;63.40;99504.05;126671;1089;102889;-78
2021/07/05 06:46:35;;;;;;;7.87;7.07;;;;;;;27.43;61.25;99507.44;126553;1089;114440;-79
2021/07/05 06:49:24;;;;;;;6.30;5.70;;;;;;;29.18;59.91;99510.03;126759;1089;103336;-79
2021/07/05 06:52:11;;;;;;;7.10;6.30;;;;;;;31.52;57.44;99502.73;126597;1089;114187;-79
2021/07/05 06:55:05;;;;;;;6.70;6.00;;;;;;;32.33;53.56;99508.95;126744;1088;103010;-80
2021/07/05 06:57:54;;;;;;;5.47;4.97;;;;;;;32.11;52.61;99510.13;126740;1089;114273;-80
2021/07/05 07:00:42;;;;;;;9.00;5.57;;;;;;;32.51;51.39;99507.48;126671;1090;102846;-80
2021/07/05 07:03:30;;;;;;;6.47;5.20;;;;;;;33.41;49.34;99495.86;126556;1090;114609;-80
2021/07/05 07:06:18;;;;;;;6.53;5.33;;;;;;;34.50;47.70;99489.31;126686;1090;102942;-80
2021/07/05 07:09:06;;;;;;;5.40;4.90;;;;;;;35.21;46.06;99486.06;126570;1088;114999;-80
2021/07/05 07:11:53;;;;;;;5.57;4.57;;;;;;;36.64;44.76;99484.37;126838;1089;103478;-81
2021/07/05 07:14:42;;;;;;;4.63;4.03;;;;;;;37.79;42.51;99487.88;126627;1089;102878;-79
2021/07/05 07:17:35;;;;;;;4.97;4.47;;;;;;;37.24;41.01;99484.03;126405;1089;113128;-80
2021/07/05 07:20:25;;;;;;;4.70;4.30;;;;;;;36.12;40.51;99490.45;126599;1090;102908;-80
2021/07/05 07:23:13;;;;;;;5.27;4.50;;;;;;;34.79;41.53;99490.46;126500;1089;114243;-80
2021/07/05 07:26:02;;;;;;;6.07;4.80;;;;;;;33.98;42.73;99494.09;126584;1090;102897;-80
2021/07/05 07:28:53;;;;;;;4.53;4.17;;;;;;;34.81;42.05;99478.34;126532;1089;114297;-79
2021/07/05 07:31:42;;;;;;;4.73;4.07;;;;;;;36.35;41.07;99486.95;126599;1090;102946;-80
2021/07/05 07:34:29;;;;;;;4.37;3.97;;;;;;;37.67;39.09;99489.78;126529;1090;114108;-78
2021/07/05 07:37:17;;;;;;;4.97;3.60;;;;;;;38.29;37.89;99491.73;126656;1088;102911;-78
2021/07/05 07:40:15;;;;;;;4.67;4.23;;;;;;;37.39;37.05;99497.97;126520;1089;114345;-77
2021/07/05 07:43:03;;;;;;;7.63;4.30;;;;;;;36.20;37.94;99491.98;126602;1090;103309;-77
2021/07/05 07:45:51;;;;;;;5.00;4.50;;;;;;;35.04;38.24;99482.31;126477;1089;114538;-78
2021/07/05 07:48:38;;;;;;;5.73;5.13;;;;;;;33.77;39.21;99489.83;126649;1090;102943;-78
2021/07/05 07:51:27;;;;;;;6.70;4.50;;;;;;;32.97;40.52;99483.11;126608;1089;115153;-77
2021/07/05 07:54:15;;;;;;;4.90;4.50;;;;;;;32.21;41.65;99483.59;126660;1089;100616;-80
2021/07/05 07:57:03;;;;;;;5.87;4.77;;;;;;;32.29;42.47;99479.86;126656;1090;102961;-80
2021/07/05 07:59:51;;;;;;;3.90;3.60;;;;;;;33.60;41.46;99477.88;126604;1089;102865;-80
2021/07/05 08:02:39;;;;;;;4.20;3.70;;;;;;;35.21;40.53;99480.64;126538;1090;102910;-79
2021/07/05 08:05:32;;;;;;;3.77;3.47;;;;;;;36.09;38.52;99476.48;126502;1090;114367;-79
2021/07/05 08:08:20;;;;;;;4.30;3.90;;;;;;;36.30;37.22;99470.52;126485;1090;103264;-79
2021/07/05 08:11:08;;;;;;;3.53;3.23;;;;;;;36.25;37.42;99475.80;126623;1090;114100;-78
2021/07/05 08:13:56;;;;;;;4.43;4.03;;;;;;;36.77;36.61;99484.09;126584;1090;103012;-79
2021/07/05 08:16:45;;;;;;;4.57;3.93;;;;;;;37.48;36.37;99472.02;126697;1090;114331;-79
2021/07/05 08:19:32;;;;;;;5.20;3.90;;;;;;;38.23;35.68;99488.08;126490;1090;101730;-79
2021/07/05 08:22:20;;;;;;;4.13;3.73;;;;;;;37.89;34.92;99487.23;126641;1090;113318;-79
2021/07/05 08:25:09;;;;;;;4.50;4.10;;;;;;;36.89;34.68;99482.23;126597;1089;102923;-79
2021/07/05 08:27:58;;;;;;;4.30;3.90;;;;;;;35.96;35.40;99483.80;126400;1087;114456;-79
2021/07/05 08:30:46;;;;;;;4.00;3.60;;;;;;;36.50;35.91;99479.16;126596;1090;103106;-79
2021/07/05 08:33:36;;;;;;;3.80;3.50;;;;;;;37.45;35.26;99481.49;126416;1090;114629;-79
2021/07/05 08:36:23;;;;;;;5.33;3.90;;;;;;;38.26;34.36;99475.89;126465;1090;102178;-79
2021/07/05 08:39:13;;;;;;;4.13;3.70;;;;;;;39.01;33.17;99472.61;126550;1090;105283;-78
2021/07/05 08:42:01;;;;;;;3.70;3.40;;;;;;;38.68;32.96;99476.27;126364;1090;114351;-78
2021/07/05 08:44:50;;;;;;;3.53;3.20;;;;;;;38.30;32.61;99472.41;126556;1090;101725;-78
2021/07/05 08:47:41;;;;;;;5.23;4.30;;;;;;;38.14;32.31;99475.94;126489;1090;114157;-78
2021/07/05 08:50:30;;;;;;;3.97;3.63;;;;;;;38.42;32.35;99469.58;126629;1090;103001;-78
2021/07/05 08:53:18;;;;;;;3.70;3.40;;;;;;;38.32;32.46;99472.98;126490;1088;114450;-78
2021/07/05 08:56:06;;;;;;;6.03;3.60;;;;;;;38.11;32.62;99465.55;126625;1089;101885;-78
2021/07/05 08:58:54;;;;;;;4.10;3.80;;;;;;;37.88;32.14;99466.50;126597;1090;114332;-78
2021/07/05 09:01:42;;;;;;;5.53;4.63;;;;;;;36.87;32.56;99460.73;126583;1089;102876;-79
2021/07/05 09:04:33;;;;;;;4.60;4.20;;;;;;;36.69;33.56;99460.02;126463;1088;114503;-80
2021/07/05 09:07:21;;;;;;;6.40;4.70;;;;;;;36.60;33.52;99463.08;126651;1089;103055;-78
2021/07/05 09:10:09;;;;;;;7.20;4.20;;;;;;;36.64;33.63;99454.48;126460;1090;114433;-77
2021/07/05 09:13:09;;;;;;;5.30;4.10;;;;;;;36.97;33.67;99454.66;126620;1090;102827;-80
2021/07/05 09:16:01;;;;;;;3.63;3.33;;;;;;;37.11;33.15;99460.66;126553;1090;114462;-79
2021/07/05 09:18:49;;;;;;;4.10;3.80;;;;;;;37.40;32.79;99458.83;126638;1089;100879;-76
2021/07/05 09:21:37;;;;;;;4.40;3.90;;;;;;;37.42;32.61;99449.34;126576;1090;102865;-77
2021/07/05 09:24:32;;;;;;;4.63;4.17;;;;;;;37.14;32.46;99452.02;126598;1090;103483;-77
2021/07/05 09:27:36;;;;;;;6.27;4.00;;;;;;;36.78;32.93;99448.53;126571;1088;103057;-78
2021/07/05 09:30:35;;;;;;;4.00;3.70;;;;;;;37.00;32.89;99456.10;126561;1088;114062;-78
2021/07/05 09:33:28;;;;;;;4.07;3.77;;;;;;;37.20;33.01;99460.05;126645;1089;102892;-79
2021/07/05 09:36:36;;;;;;;4.03;3.63;;;;;;;37.62;32.83;99448.89;126586;1090;114151;-78
2021/07/05 09:39:25;;;;;;;3.80;3.40;;;;;;;37.96;31.85;99455.23;126554;1090;103021;-79
2021/07/05 09:42:13;;;;;;;4.33;3.93;;;;;;;38.16;31.92;99449.28;126519;1090;114252;-78
2021/07/05 09:45:12;;;;;;;4.13;3.73;;;;;;;38.51;31.63;99445.47;126594;1090;101881;-79
2021/07/05 09:48:11;;;;;;;4.03;3.73;;;;;;;38.82;31.16;99447.56;126572;1090;114369;-79
2021/07/05 09:51:03;;;;;;;4.57;3.70;;;;;;;39.11;30.88;99450.11;126605;1090;102885;-78
2021/07/05 09:53:51;;;;;;;4.37;3.60;;;;;;;39.12;30.49;99451.76;126486;1090;114211;-78
2021/07/05 09:56:39;;;;;;;4.00;3.57;;;;;;;39.32;30.42;99452.02;126612;1089;102866;-79
2021/07/05 09:59:28;;;;;;;4.67;3.70;;;;;;;39.60;29.73;99448.22;126541;1090;114387;-79
2021/07/05 10:02:24;;;;;;;3.97;3.43;;;;;;;39.47;29.40;99440.41;126656;1090;100555;-79
2021/07/05 10:05:13;;;;;;;3.53;3.23;;;;;;;39.49;29.21;99440.97;126543;1090;114344;-80
2021/07/05 10:08:07;;;;;;;4.35;3.95;;;;;;;39.45;29.60;99456.22;126580;1090;103053;-79
2021/07/05 10:11:04;;;;;;;3.93;3.63;;;;;;;39.13;28.66;99453.41;126499;1090;114459;-79
2021/07/05 10:13:52;;;;;;;3.57;3.27;;;;;;;38.79;29.23;99458.98;126742;1088;102892;-78
2021/07/05 10:16:43;;;;;;;4.10;3.70;;;;;;;38.75;28.89;99457.81;126569;1090;114274;-79
2021/07/05 10:19:40;;;;;;;4.20;3.50;;;;;;;38.72;29.39;99455.59;126684;1090;102874;-78
2021/07/05 10:22:28;;;;;;;4.20;3.80;;;;;;;38.83;29.22;99457.39;126431;1090;114575;-77
2021/07/05 10:25:17;;;;;;;3.93;3.53;;;;;;;38.94;28.88;99461.05;126663;1090;103024;-78
2021/07/05 10:28:06;;;;;;;4.77;3.40;;;;;;;38.90;28.80;99460.74;126565;1090;102868;-77
2021/07/05 10:30:54;;;;;;;6.23;3.80;;;;;;;38.62;29.13;99458.17;126453;1090;114307;-77
2021/07/05 10:33:41;;;;;;;4.93;3.93;;;;;;;38.06;29.21;99465.44;126605;1089;102852;-78
2021/07/05 10:36:35;;;;;;;4.07;3.60;;;;;;;37.88;29.78;99462.95;126426;1090;114256;-78
2021/07/05 10:39:24;;;;;;;4.40;4.00;;;;;;;37.95;29.73;99459.02;126643;1089;102942;-77
2021/07/05 10:42:55;;;;;;;3.93;3.63;;;;;;;38.07;29.56;99462.50;126540;1089;114120;-77
2021/07/05 10:46:02;;;;;;;4.53;3.57;;;;;;;37.71;28.97;99461.04;126628;1088;102968;-78
2021/07/05 10:48:50;;;;;;;4.03;3.73;;;;;;;37.65;29.50;99467.44;126444;1088;113226;-78
2021/07/05 10:51:45;;;;;;;4.63;3.70;;;;;;;37.57;29.31;99467.84;126591;1090;101739;-78
2021/07/05 10:54:45;;;;;;;5.40;3.90;;;;;;;37.35;29.65;99458.73;126473;1089;114286;-78
2021/07/05 10:57:37;;;;;;;4.80;4.30;;;;;;;37.11;29.83;99464.20;126725;1089;102940;-78
2021/07/05 11:00:42;;;;;;;4.20;3.60;;;;;;;36.77;29.69;99463.18;126637;1090;113061;-78
2021/07/05 11:03:39;;;;;;;3.90;3.27;;;;;;;36.50;29.76;99452.00;126549;1090;102869;-78
2021/07/05 11:06:27;;;;;;;3.73;3.33;;;;;;;36.42;29.74;99449.63;126644;1090;114395;-78
2021/07/05 11:09:21;;;;;;;6.47;3.50;;;;;;;35.97;30.32;99461.03;126821;1090;102978;-78
2021/07/05 11:12:09;;;;;;;3.50;3.20;;;;;;;35.41;30.53;99456.01;126610;1090;114266;-78
2021/07/05 11:14:58;;;;;;;3.50;3.13;;;;;;;34.95;30.90;99448.43;126614;1090;102850;-78
2021/07/05 11:17:46;;;;;;;4.03;3.23;;;;;;;34.51;30.65;99453.06;126509;1089;114140;-78
2021/07/05 11:20:37;;;;;;;4.23;3.10;;;;;;;34.16;31.21;99456.27;126599;1089;103004;-77
2021/07/05 11:23:25;;;;;;;3.43;3.17;;;;;;;34.10;30.83;99461.72;126487;1089;113910;-78
2021/07/05 11:26:23;;;;;;;4.87;3.03;;;;;;;33.72;30.72;99464.47;126588;1090;102860;-77
2021/07/05 11:29:15;;;;;;;4.37;3.20;;;;;;;33.50;32.39;99450.47;126454;1092;113724;-78
2021/07/05 11:32:04;;;;;;;3.63;3.23;;;;;;;33.45;32.04;99458.41;126539;1093;102961;-78
2021/07/05 11:34:52;;;;;;;3.97;3.40;;;;;;;33.20;32.30;99451.00;126194;1092;113801;-78
2021/07/05 11:37:40;;;;;;;3.33;3.03;;;;;;;33.03;32.50;99461.45;126317;1092;104212;-78
2021/07/05 11:40:43;;;;;;;4.73;4.07;;;;;;;32.93;32.53;99457.56;126604;1092;103499;-78
2021/07/05 11:44:11;;;;;;;4.90;3.60;;;;;;;32.83;33.07;99452.59;126537;1093;102925;-77
2021/07/05 11:46:55;;;;;;;3.60;3.30;;;;;;;32.78;33.97;99446.16;126544;1092;102883;-78
2021/07/05 11:49:43;;;;;;;3.43;3.13;;;;;;;32.70;34.09;99444.53;126319;1092;113432;-78
2021/07/05 11:52:31;;;;;;;3.97;3.10;;;;;;;32.66;33.76;99443.27;126586;1093;103004;-78
2021/07/05 11:55:25;;;;;;;4.20;3.60;;;;;;;32.71;34.28;99446.19;126182;1093;113594;-78
2021/07/05 11:58:13;;;;;;;3.20;3.00;;;;;;;32.70;33.62;99444.53;126548;1092;102869;-77
2021/07/05 12:01:11;;;;;;;2.90;2.70;;;;;;;32.61;32.84;99452.01;126150;1093;112462;-77
2021/07/05 12:04:02;;;;;;;4.77;3.00;;;;;;;32.65;32.78;99442.44;126472;1093;102991;-79
2021/07/05 12:06:50;;;;;;;4.30;3.00;;;;;;;32.64;32.27;99440.78;126170;1093;113652;-78
2021/07/05 12:09:40;;;;;;;4.40;3.43;;;;;;;32.53;32.67;99440.63;126264;1091;102981;-79
2021/07/05 12:12:31;;;;;;;5.50;2.80;;;;;;;32.60;31.58;99438.72;126207;1093;112683;-79
2021/07/05 12:15:22;;;;;;;3.57;2.37;;;;;;;32.66;31.79;99437.87;126269;1093;102963;-79
2021/07/05 12:18:18;;;;;;;4.47;2.40;;;;;;;32.74;31.77;99437.66;126202;1093;113638;-79
2021/07/05 12:21:07;;;;;;;3.97;2.67;;;;;;;32.69;32.37;99440.17;126234;1093;102863;-77
2021/07/05 12:24:11;;;;;;;5.00;3.00;;;;;;;32.60;32.52;99436.85;126447;1093;113733;-79
2021/07/05 12:27:03;;;;;;;2.63;2.43;;;;;;;32.53;32.21;99429.83;126373;1093;102951;-79
2021/07/05 12:30:00;;;;;;;2.83;2.63;;;;;;;32.56;32.08;99430.22;126133;1092;113868;-79
2021/07/05 12:32:49;;;;;;;2.67;2.47;;;;;;;32.34;32.00;99437.74;126314;1091;104421;-79
2021/07/05 12:35:38;;;;;;;3.33;2.60;;;;;;;32.04;32.81;99429.22;126157;1093;113878;-80
2021/07/05 12:38:27;;;;;;;2.80;2.60;;;;;;;31.81;32.83;99429.63;126293;1092;101735;-79
2021/07/05 12:41:28;;;;;;;3.60;2.63;;;;;;;31.66;33.12;99428.95;126272;1093;102864;-79
2021/07/05 12:44:17;;;;;;;4.63;2.40;;;;;;;31.67;33.55;99427.09;126572;1092;102948;-79
2021/07/05 12:47:06;;;;;;;5.53;2.80;;;;;;;31.44;33.71;99430.99;126382;1093;102927;-77
2021/07/05 12:49:55;;;;;;;3.43;2.87;;;;;;;31.18;34.21;99433.59;126150;1093;112665;-77
2021/07/05 12:53:00;;;;;;;3.90;2.80;;;;;;;30.84;34.15;99431.76;126269;1093;102874;-77
2021/07/05 12:55:59;;;;;;;5.03;3.00;;;;;;;30.42;34.47;99433.57;126454;1093;113732;-77
2021/07/05 12:58:51;;;;;;;3.20;2.97;;;;;;;30.10;34.96;99432.30;126222;1092;102938;-77